createdAt,value
2023-04-02T00:00:52.819Z,6.3250
2023-04-02T00:01:54.241Z,6.3312
2023-04-02T00:02:55.730Z,6.3199
2023-04-02T00:03:57.173Z,6.3220
2023-04-02T00:04:58.598Z,6.3745
2023-04-02T00:05:59.964Z,6.3808
2023-04-02T00:07:01.327Z,6.3725
2023-04-02T00:08:02.740Z,6.4218
2023-04-02T00:09:04.116Z,6.4577
2023-04-02T00:10:05.549Z,6.5047
2023-04-02T00:11:06.958Z,6.4939
2023-04-02T00:12:08.339Z,6.4351
2023-04-02T00:13:09.735Z,6.4303
2023-04-02T00:14:11.186Z,6.4346
2023-04-02T00:15:12.635Z,6.4186
2023-04-02T00:16:14.018Z,6.4348
2023-04-02T00:17:15.437Z,6.4385
2023-04-02T00:18:16.902Z,6.4128
2023-04-02T00:19:18.279Z,6.4040
2023-04-02T00:20:19.628Z,6.3996
2023-04-02T00:21:20.970Z,6.4320
2023-04-02T00:22:22.377Z,6.4397
2023-04-02T00:23:23.770Z,6.4461
2023-04-02T00:24:25.199Z,6.4302
2023-04-02T00:25:26.576Z,6.4084
2023-04-02T00:26:28.037Z,6.4017
2023-04-02T00:27:29.363Z,6.3723
2023-04-02T00:28:30.749Z,6.3515
2023-04-02T00:29:32.133Z,6.3380
2023-04-02T00:30:33.508Z,6.3144
2023-04-02T00:31:34.900Z,6.2758
2023-04-02T00:32:36.307Z,6.2494
2023-04-02T00:33:37.742Z,6.2240
2023-04-02T00:34:39.204Z,6.1562
2023-04-02T00:35:40.660Z,6.1169
2023-04-02T00:36:42.171Z,6.1121
2023-04-02T00:37:43.571Z,6.0981
2023-04-02T00:38:46.665Z,6.0589
2023-04-02T00:39:46.425Z,6.0674
2023-04-02T00:40:47.774Z,6.0646
2023-04-02T00:41:49.197Z,6.0519
2023-04-02T00:42:50.607Z,6.0555
2023-04-02T00:43:52.051Z,6.0229
2023-04-02T00:44:53.504Z,6.0096
2023-04-02T00:45:54.923Z,5.9968
2023-04-02T00:46:56.354Z,5.9827
2023-04-02T00:47:57.854Z,5.9694
2023-04-02T00:48:59.241Z,5.9690
2023-04-02T00:50:00.717Z,5.9594
2023-04-02T00:51:02.093Z,5.9411
2023-04-02T00:52:03.531Z,5.9525
2023-04-02T00:53:04.920Z,5.9347
2023-04-02T00:54:06.378Z,5.9014
2023-04-02T00:55:07.793Z,5.8949
2023-04-02T00:56:09.280Z,5.8885
2023-04-02T00:57:10.653Z,5.8837
2023-04-02T00:58:12.131Z,5.8964
2023-04-02T00:59:13.495Z,5.8801
2023-04-02T01:00:14.979Z,5.9018
2023-04-02T01:01:16.395Z,5.9218
2023-04-02T01:02:18.070Z,5.9185
2023-04-02T01:03:19.666Z,5.8989
2023-04-02T01:04:21.515Z,5.9029
2023-04-02T01:05:23.068Z,5.8933
2023-04-02T01:06:24.471Z,5.8724
2023-04-02T01:07:26.112Z,5.8779
2023-04-02T01:08:27.534Z,5.8875
2023-04-02T01:09:28.882Z,5.8790
2023-04-02T01:10:30.343Z,5.8613
2023-04-02T01:11:31.879Z,5.8589
2023-04-02T01:12:33.381Z,5.8848
2023-04-02T01:13:34.782Z,5.9286
2023-04-02T01:14:36.204Z,5.9359
2023-04-02T01:15:38.110Z,5.9376
2023-04-02T01:16:39.782Z,5.9412
2023-04-02T01:17:41.182Z,5.9406
2023-04-02T01:18:42.583Z,5.9303
2023-04-02T01:19:43.938Z,5.9236
2023-04-02T01:20:45.384Z,5.9145
2023-04-02T01:21:46.796Z,5.9330
2023-04-02T01:22:48.256Z,5.9498
2023-04-02T01:23:49.605Z,5.9435
2023-04-02T01:24:50.993Z,5.9500
2023-04-02T01:25:52.449Z,5.9584
2023-04-02T01:26:53.777Z,5.9843
2023-04-02T01:27:55.182Z,5.9923
2023-04-02T01:28:56.575Z,5.9853
2023-04-02T01:29:57.955Z,5.9937
2023-04-02T01:30:59.346Z,5.9983
2023-04-02T01:32:00.791Z,6.0168
2023-04-02T01:33:02.255Z,6.0168
2023-04-02T01:34:03.674Z,5.9944
2023-04-02T01:35:05.039Z,5.9851
2023-04-02T01:36:06.419Z,5.9937
2023-04-02T01:37:07.813Z,6.0205
2023-04-02T01:38:09.205Z,6.0321
2023-04-02T01:39:10.628Z,6.0289
2023-04-02T01:40:12.023Z,6.0262
2023-04-02T01:41:13.407Z,6.0208
2023-04-02T01:42:14.824Z,6.0057
2023-04-02T01:43:16.195Z,6.0145
2023-04-02T01:44:17.553Z,6.0212
2023-04-02T01:45:18.955Z,6.0256
2023-04-02T01:46:20.435Z,6.0284
2023-04-02T01:47:21.768Z,6.0435
2023-04-02T01:48:23.208Z,6.0464
2023-04-02T01:49:24.573Z,6.0684
2023-04-02T01:50:25.977Z,6.0840
2023-04-02T01:51:27.394Z,6.1027
2023-04-02T01:52:28.882Z,6.1207
2023-04-02T01:53:30.222Z,6.1053
2023-04-02T01:54:31.665Z,6.1179
2023-04-02T01:55:33.328Z,6.1201
2023-04-02T01:56:35.179Z,6.1216
2023-04-02T01:57:36.572Z,6.1153
2023-04-02T01:58:37.950Z,6.1228
2023-04-02T01:59:39.369Z,6.1397
2023-04-02T02:00:40.902Z,6.1466
2023-04-02T02:01:42.467Z,6.1239
2023-04-02T02:02:43.918Z,6.0925
2023-04-02T02:03:45.400Z,6.0983
2023-04-02T02:04:46.853Z,6.0966
2023-04-02T02:05:48.218Z,6.0982
2023-04-02T02:06:49.632Z,6.0912
2023-04-02T02:07:51.039Z,6.0879
2023-04-02T02:08:52.440Z,6.0810
2023-04-02T02:09:53.787Z,6.0729
2023-04-02T02:10:55.194Z,6.1042
2023-04-02T02:11:56.564Z,6.0932
2023-04-02T02:12:57.998Z,6.0562
2023-04-02T02:13:59.356Z,6.0516
2023-04-02T02:15:00.814Z,6.0468
2023-04-02T02:16:02.189Z,6.0316
2023-04-02T02:17:03.575Z,6.0288
2023-04-02T02:18:04.927Z,6.0082
2023-04-02T02:19:06.322Z,6.0157
2023-04-02T02:20:07.741Z,6.0127
2023-04-02T02:21:09.114Z,5.9768
2023-04-02T02:22:10.547Z,5.9359
2023-04-02T02:23:11.936Z,5.9366
2023-04-02T02:24:13.414Z,5.9069
2023-04-02T02:25:14.827Z,5.9078
2023-04-02T02:26:16.238Z,5.8521
2023-04-02T02:27:17.587Z,5.8839
2023-04-02T02:28:19.002Z,5.9180
2023-04-02T02:29:20.384Z,5.8811
2023-04-02T02:30:21.770Z,5.8465
2023-04-02T02:31:23.270Z,5.8081
2023-04-02T02:32:24.701Z,5.8215
2023-04-02T02:33:26.079Z,5.8766
2023-04-02T02:34:27.469Z,5.8663
2023-04-02T02:35:28.983Z,5.8394
2023-04-02T02:36:30.364Z,5.8148
2023-04-02T02:37:31.741Z,5.8043
2023-04-02T02:38:33.147Z,5.8302
2023-04-02T02:39:34.635Z,5.8264
2023-04-02T02:40:36.049Z,5.8317
2023-04-02T02:41:37.441Z,5.8499
2023-04-02T02:42:38.832Z,5.8398
2023-04-02T02:43:40.272Z,5.8699
2023-04-02T02:44:41.670Z,5.9265
2023-04-02T02:45:43.071Z,5.9504
2023-04-02T02:46:44.437Z,5.9568
2023-04-02T02:47:45.885Z,5.9815
2023-04-02T02:48:47.217Z,5.9897
2023-04-02T02:49:48.632Z,5.9961
2023-04-02T02:50:50.060Z,5.9916
2023-04-02T02:51:51.441Z,5.9553
2023-04-02T02:52:52.849Z,5.9658
2023-04-02T02:53:54.249Z,5.9429
2023-04-02T02:54:55.917Z,5.9016
2023-04-02T02:55:57.331Z,5.8744
2023-04-02T02:56:58.716Z,5.8772
2023-04-02T02:58:00.142Z,5.8798
2023-04-02T02:59:01.516Z,5.8751
2023-04-02T03:00:02.962Z,5.8658
2023-04-02T03:01:04.402Z,5.8772
2023-04-02T03:02:05.762Z,5.8871
2023-04-02T03:03:07.238Z,5.9202
2023-04-02T03:04:09.000Z,5.9195
2023-04-02T03:05:10.674Z,5.9226
2023-04-02T03:06:12.100Z,5.9321
2023-04-02T03:07:13.485Z,5.9333
2023-04-02T03:08:14.975Z,5.9258
2023-04-02T03:09:16.398Z,5.9112
2023-04-02T03:10:17.816Z,5.9195
2023-04-02T03:11:19.277Z,5.9180
2023-04-02T03:12:20.685Z,5.9135
2023-04-02T03:13:22.066Z,5.9049
2023-04-02T03:14:23.446Z,5.9049
2023-04-02T03:15:24.798Z,5.8869
2023-04-02T03:16:26.297Z,5.8745
2023-04-02T03:17:27.732Z,5.8512
2023-04-02T03:18:29.155Z,5.8392
2023-04-02T03:19:30.566Z,5.8526
2023-04-02T03:20:31.951Z,5.8415
2023-04-02T03:21:33.399Z,5.8451
2023-04-02T03:22:34.776Z,5.8450
2023-04-02T03:23:36.164Z,5.8409
2023-04-02T03:24:37.524Z,5.8317
2023-04-02T03:25:38.979Z,5.8251
2023-04-02T03:26:40.308Z,5.7992
2023-04-02T03:27:41.755Z,5.7971
2023-04-02T03:28:43.135Z,5.8034
2023-04-02T03:29:44.575Z,5.8065
2023-04-02T03:30:46.028Z,5.7726
2023-04-02T03:31:47.585Z,5.7483
2023-04-02T03:32:49.112Z,5.7353
2023-04-02T03:33:50.596Z,5.7397
2023-04-02T03:34:52.059Z,5.7501
2023-04-02T03:35:53.611Z,5.7572
2023-04-02T03:36:55.065Z,5.7436
2023-04-02T03:37:56.547Z,5.7430
2023-04-02T03:38:58.105Z,5.7491
2023-04-02T03:39:59.594Z,5.7398
2023-04-02T03:41:01.173Z,5.7224
2023-04-02T03:42:02.553Z,5.7213
2023-04-02T03:43:04.015Z,5.7084
2023-04-02T03:44:05.514Z,5.6936
2023-04-02T03:45:07.156Z,5.6858
2023-04-02T03:46:08.926Z,5.7280
2023-04-02T03:47:10.381Z,5.7247
2023-04-02T03:48:11.841Z,5.7047
2023-04-02T03:49:13.324Z,5.6794
2023-04-02T03:50:14.796Z,5.6448
2023-04-02T03:51:16.307Z,5.6597
2023-04-02T03:52:17.779Z,5.6756
2023-04-02T03:53:19.242Z,5.6554
2023-04-02T03:54:20.720Z,5.6477
2023-04-02T03:55:22.253Z,5.6506
2023-04-02T03:56:23.636Z,5.6304
2023-04-02T03:57:25.174Z,5.6369
2023-04-02T03:58:26.721Z,5.6445
2023-04-02T03:59:28.283Z,5.6560
2023-04-02T04:00:29.703Z,5.6362
2023-04-02T04:01:31.209Z,5.6515
2023-04-02T04:02:32.652Z,5.6609
2023-04-02T04:03:34.181Z,5.6717
2023-04-02T04:04:35.730Z,5.6853
2023-04-02T04:05:37.456Z,5.7048
2023-04-02T04:06:39.097Z,5.7196
2023-04-02T04:07:40.520Z,5.7376
2023-04-02T04:08:41.949Z,5.9233
2023-04-02T04:09:43.413Z,6.1165
2023-04-02T04:10:44.890Z,6.1377
2023-04-02T04:11:46.346Z,6.1374
2023-04-02T04:12:47.915Z,6.1223
2023-04-02T04:13:49.384Z,6.1170
2023-04-02T04:14:50.851Z,6.1556
2023-04-02T04:15:52.275Z,6.1545
2023-04-02T04:16:54.003Z,6.1442
2023-04-02T04:17:55.950Z,6.1211
2023-04-02T04:18:57.396Z,6.1263
2023-04-02T04:19:58.856Z,6.1512
2023-04-02T04:21:00.396Z,6.1594
2023-04-02T04:22:01.850Z,6.1631
2023-04-02T04:23:03.268Z,6.1861
2023-04-02T04:24:04.863Z,6.1641
2023-04-02T04:25:06.285Z,6.1453
2023-04-02T04:26:07.731Z,6.1288
2023-04-02T04:27:09.182Z,6.1397
2023-04-02T04:28:10.653Z,6.1476
2023-04-02T04:29:12.070Z,6.1515
2023-04-02T04:30:13.641Z,6.1447
2023-04-02T04:31:15.103Z,6.1391
2023-04-02T04:32:16.609Z,6.1201
2023-04-02T04:33:18.246Z,6.0963
2023-04-02T04:34:19.697Z,6.0746
2023-04-02T04:35:21.144Z,6.0841
2023-04-02T04:36:22.586Z,6.0929
2023-04-02T04:37:24.077Z,6.1183
2023-04-02T04:38:25.562Z,6.1190
2023-04-02T04:39:27.154Z,6.1256
2023-04-02T04:40:28.602Z,6.1413
2023-04-02T04:41:30.049Z,6.1607
2023-04-02T04:42:31.491Z,6.1331
2023-04-02T04:43:32.982Z,6.1271
2023-04-02T04:44:34.445Z,6.1352
2023-04-02T04:45:36.221Z,6.1403
2023-04-02T04:46:37.882Z,6.1543
2023-04-02T04:47:39.373Z,6.1624
2023-04-02T04:48:40.813Z,6.1724
2023-04-02T04:49:42.266Z,6.1664
2023-04-02T04:50:43.705Z,6.1729
2023-04-02T04:51:45.179Z,6.1733
2023-04-02T04:52:46.632Z,6.2080
2023-04-02T04:53:48.185Z,6.1977
2023-04-02T04:54:49.663Z,6.1838
2023-04-02T04:55:51.104Z,6.1652
2023-04-02T04:56:52.606Z,6.1560
2023-04-02T04:57:54.040Z,6.1560
2023-04-02T04:58:55.454Z,6.1747
2023-04-02T04:59:56.878Z,6.2044
2023-04-02T05:00:58.321Z,6.1923
2023-04-02T05:01:59.793Z,6.1917
2023-04-02T05:03:01.373Z,6.1681
2023-04-02T05:04:02.791Z,6.1455
2023-04-02T05:05:04.317Z,6.1294
2023-04-02T05:06:05.764Z,6.1091
2023-04-02T05:07:07.235Z,6.1187
2023-04-02T05:08:08.664Z,6.1054
2023-04-02T05:09:10.080Z,6.0884
2023-04-02T05:10:11.563Z,6.1299
2023-04-02T05:11:13.045Z,6.1588
2023-04-02T05:12:14.493Z,6.1331
2023-04-02T05:13:15.913Z,6.1309
2023-04-02T05:14:17.416Z,6.1481
2023-04-02T05:15:18.867Z,6.1435
2023-04-02T05:16:20.383Z,6.1316
2023-04-02T05:17:21.870Z,6.1308
2023-04-02T05:18:23.372Z,6.1521
2023-04-02T05:19:24.824Z,6.1472
2023-04-02T05:20:26.263Z,6.1532
2023-04-02T05:21:27.669Z,6.1767
2023-04-02T05:22:29.109Z,6.1774
2023-04-02T05:23:30.614Z,6.1848
2023-04-02T05:24:31.998Z,6.1824
2023-04-02T05:25:33.669Z,6.1817
2023-04-02T05:26:35.183Z,6.1811
2023-04-02T05:27:36.681Z,6.1660
2023-04-02T05:28:38.132Z,6.1712
2023-04-02T05:29:39.647Z,6.1983
2023-04-02T05:30:41.251Z,6.2297
2023-04-02T05:31:42.795Z,6.2647
2023-04-02T05:32:44.367Z,6.2760
2023-04-02T05:33:45.866Z,6.2810
2023-04-02T05:34:47.343Z,6.2585
2023-04-02T05:35:48.867Z,6.2396
2023-04-02T05:36:50.356Z,6.2386
2023-04-02T05:37:51.809Z,6.2700
2023-04-02T05:38:53.277Z,6.2755
2023-04-02T05:39:54.792Z,6.2755
2023-04-02T05:40:56.275Z,6.2684
2023-04-02T05:41:57.761Z,6.2761
2023-04-02T05:42:59.197Z,6.2738
2023-04-02T05:44:00.665Z,6.2879
2023-04-02T05:45:02.134Z,6.2940
2023-04-02T05:46:03.804Z,6.2906
2023-04-02T05:47:05.244Z,6.3029
2023-04-02T05:48:06.748Z,6.2940
2023-04-02T05:49:08.183Z,6.3088
2023-04-02T05:50:09.663Z,6.3227
2023-04-02T05:51:11.094Z,6.3490
2023-04-02T05:52:12.556Z,6.3233
2023-04-02T05:53:14.095Z,6.3139
2023-04-02T05:54:15.563Z,6.2968
2023-04-02T05:55:17.386Z,6.3202
2023-04-02T05:56:18.813Z,6.3394
2023-04-02T05:57:20.270Z,6.3467
2023-04-02T05:58:35.573Z,6.3557
2023-04-02T05:59:21.738Z,6.3400
2023-04-02T06:00:23.180Z,6.3491
2023-04-02T06:01:24.620Z,6.3361
2023-04-02T06:02:26.086Z,6.3381
2023-04-02T06:03:27.745Z,6.3747
2023-04-02T06:04:29.223Z,6.3841
2023-04-02T06:05:30.641Z,6.4117
2023-04-02T06:06:32.075Z,6.3922
2023-04-02T06:07:33.516Z,6.3984
2023-04-02T06:08:35.057Z,6.4284
2023-04-02T06:09:36.519Z,6.4029
2023-04-02T06:10:37.972Z,6.4520
2023-04-02T06:11:39.417Z,6.4764
2023-04-02T06:12:40.922Z,6.4975
2023-04-02T06:13:42.406Z,6.5699
2023-04-02T06:14:43.935Z,6.6148
2023-04-02T06:15:47.247Z,6.6390
2023-04-02T06:16:46.801Z,6.6179
2023-04-02T06:17:48.301Z,6.6156
2023-04-02T06:18:49.789Z,6.5201
2023-04-02T06:19:51.251Z,6.4981
2023-04-02T06:20:52.720Z,6.5917
2023-04-02T06:21:54.124Z,6.6074
2023-04-02T06:22:55.623Z,6.6508
2023-04-02T06:23:57.102Z,6.6896
2023-04-02T06:24:58.543Z,6.7330
2023-04-02T06:26:00.013Z,6.7351
2023-04-02T06:27:01.491Z,6.7327
2023-04-02T06:28:02.982Z,6.7904
2023-04-02T06:29:04.465Z,6.8233
2023-04-02T06:30:05.917Z,6.6820
2023-04-02T06:31:07.552Z,6.6824
2023-04-02T06:32:08.992Z,6.7291
2023-04-02T06:33:10.521Z,6.6854
2023-04-02T06:34:12.000Z,6.6716
2023-04-02T06:35:13.442Z,6.7006
2023-04-02T06:36:14.878Z,6.6972
2023-04-02T06:37:16.252Z,6.7541
2023-04-02T06:38:17.745Z,6.7531
2023-04-02T06:39:19.184Z,6.8159
2023-04-02T06:40:20.640Z,6.8613
2023-04-02T06:41:22.861Z,6.8205
2023-04-02T06:42:24.331Z,6.7987
2023-04-02T06:43:25.780Z,6.7564
2023-04-02T06:44:27.254Z,6.8362
2023-04-02T06:45:28.681Z,6.8978
2023-04-02T06:46:30.172Z,6.9695
2023-04-02T06:47:31.704Z,6.9162
2023-04-02T06:48:33.280Z,6.8622
2023-04-02T06:49:34.701Z,6.8977
2023-04-02T06:50:36.168Z,6.8489
2023-04-02T06:51:37.609Z,6.8502
2023-04-02T06:52:39.072Z,6.8485
2023-04-02T06:53:40.517Z,6.8903
2023-04-02T06:54:41.948Z,6.9514
2023-04-02T06:55:43.422Z,6.9525
2023-04-02T06:56:44.779Z,6.9552
2023-04-02T06:57:46.244Z,6.9816
2023-04-02T06:58:47.709Z,7.0152
2023-04-02T06:59:49.132Z,7.0709
2023-04-02T07:00:50.513Z,7.0855
2023-04-02T07:01:51.998Z,7.1865
2023-04-02T07:02:55.152Z,7.2744
2023-04-02T07:03:58.447Z,7.3091
2023-04-02T07:05:00.864Z,7.3846
2023-04-02T07:06:02.273Z,7.3961
2023-04-02T07:07:03.734Z,7.3256
2023-04-02T07:08:05.208Z,7.3490
2023-04-02T07:09:07.641Z,7.3808
2023-04-02T07:10:09.172Z,7.2486
2023-04-02T07:11:10.649Z,7.2474
2023-04-02T07:12:12.062Z,7.2873
2023-04-02T07:13:13.533Z,7.3999
2023-04-02T07:14:15.002Z,7.3713
2023-04-02T07:15:16.586Z,7.3107
2023-04-02T07:16:18.093Z,7.2717
2023-04-02T07:17:19.640Z,7.2806
2023-04-02T07:18:21.198Z,7.3737
2023-04-02T07:19:22.769Z,7.3121
2023-04-02T07:20:24.238Z,7.3835
2023-04-02T07:21:25.683Z,7.4033
2023-04-02T07:22:27.091Z,7.3894
2023-04-02T07:23:28.560Z,7.4254
2023-04-02T07:24:30.030Z,7.4715
2023-04-02T07:25:31.487Z,7.5882
2023-04-02T07:26:32.932Z,7.5385
2023-04-02T07:27:34.379Z,7.4675
2023-04-02T07:28:35.859Z,7.5344
2023-04-02T07:29:37.271Z,7.6351
2023-04-02T07:30:38.688Z,7.7196
2023-04-02T07:31:40.230Z,7.7049
2023-04-02T07:32:41.674Z,7.7217
2023-04-02T07:33:43.081Z,7.6705
2023-04-02T07:34:44.485Z,7.6218
2023-04-02T07:35:46.028Z,7.6090
2023-04-02T07:36:47.441Z,7.6973
2023-04-02T07:37:48.894Z,7.7811
2023-04-02T07:38:50.303Z,7.8345
2023-04-02T07:39:51.809Z,7.8804
2023-04-02T07:40:53.238Z,7.9977
2023-04-02T07:41:54.568Z,8.0811
2023-04-02T07:42:56.038Z,8.0256
2023-04-02T07:43:57.524Z,7.9746
2023-04-02T07:44:58.926Z,7.8552
2023-04-02T07:46:00.339Z,7.8678
2023-04-02T07:47:01.834Z,7.7943
2023-04-02T07:48:03.495Z,7.8479
2023-04-02T07:49:05.010Z,8.0155
2023-04-02T07:50:06.491Z,8.2066
2023-04-02T07:51:07.919Z,8.3641
2023-04-02T07:52:09.373Z,8.4608
2023-04-02T07:53:10.786Z,8.5667
2023-04-02T07:54:12.254Z,8.7747
2023-04-02T07:55:13.672Z,9.0071
2023-04-02T07:56:15.104Z,9.3445
2023-04-02T07:57:16.556Z,9.2236
2023-04-02T07:58:17.975Z,9.0225
2023-04-02T07:59:19.442Z,8.8405
2023-04-02T08:00:20.860Z,8.7458
2023-04-02T08:01:22.279Z,8.7256
2023-04-02T08:02:23.703Z,8.7802
2023-04-02T08:03:25.318Z,8.7051
2023-04-02T08:04:26.845Z,8.6048
2023-04-02T08:05:28.331Z,8.3924
2023-04-02T08:06:29.776Z,8.3783
2023-04-02T08:07:31.229Z,8.5035
2023-04-02T08:08:32.685Z,8.4541
2023-04-02T08:09:34.123Z,8.5711
2023-04-02T08:10:35.639Z,8.3746
2023-04-02T08:11:37.154Z,8.5063
2023-04-02T08:12:38.678Z,8.5945
2023-04-02T08:13:40.131Z,8.5560
2023-04-02T08:14:41.639Z,8.7678
2023-04-02T08:15:43.028Z,8.6940
2023-04-02T08:16:44.586Z,8.6245
2023-04-02T08:17:46.029Z,8.6019
2023-04-02T08:18:47.473Z,8.6399
2023-04-02T08:19:55.130Z,8.6756
2023-04-02T08:20:49.011Z,8.6457
2023-04-02T08:21:50.466Z,8.6098
2023-04-02T08:22:51.945Z,8.6810
2023-04-02T08:23:53.371Z,8.7366
2023-04-02T08:24:54.912Z,8.6129
2023-04-02T08:25:56.366Z,8.3191
2023-04-02T08:26:57.847Z,8.2934
2023-04-02T08:27:59.292Z,8.4947
2023-04-02T08:29:00.853Z,8.7491
2023-04-02T08:30:02.316Z,8.7298
2023-04-02T08:31:03.853Z,8.7687
2023-04-02T08:32:05.276Z,8.8769
2023-04-02T08:33:06.768Z,8.6803
2023-04-02T08:34:08.195Z,8.6375
2023-04-02T08:35:09.731Z,8.6655
2023-04-02T08:36:11.304Z,8.5256
2023-04-02T08:37:12.733Z,8.4658
2023-04-02T08:38:14.140Z,8.4743
2023-04-02T08:39:15.586Z,8.5323
2023-04-02T08:40:17.023Z,8.3687
2023-04-02T08:41:18.571Z,8.5098
2023-04-02T08:42:19.984Z,8.7621
2023-04-02T08:43:23.109Z,8.7765
2023-04-02T08:44:22.973Z,8.8189
2023-04-02T08:45:25.595Z,8.8338
2023-04-02T08:46:24.918Z,8.8100
2023-04-02T08:47:26.420Z,8.8677
2023-04-02T08:48:27.841Z,8.7862
2023-04-02T08:49:29.322Z,8.6545
2023-04-02T08:50:30.861Z,8.5590
2023-04-02T08:51:32.302Z,8.5719
2023-04-02T08:52:33.740Z,8.5311
2023-04-02T08:53:35.206Z,8.5895
2023-04-02T08:54:36.676Z,8.4744
2023-04-02T08:55:38.240Z,8.4859
2023-04-02T08:56:39.737Z,8.5690
2023-04-02T08:57:41.182Z,8.6923
2023-04-02T08:58:42.610Z,8.7406
2023-04-02T08:59:44.107Z,8.7485
2023-04-02T09:00:45.562Z,8.8249
2023-04-02T09:01:47.031Z,8.9145
2023-04-02T09:02:48.480Z,8.8835
2023-04-02T09:03:49.916Z,8.8093
2023-04-02T09:04:51.439Z,8.8139
2023-04-02T09:05:52.933Z,8.9156
2023-04-02T09:06:54.369Z,8.8332
2023-04-02T09:07:55.811Z,8.8007
2023-04-02T09:08:57.267Z,8.8101
2023-04-02T09:09:58.836Z,8.9129
2023-04-02T09:11:00.306Z,9.0028
2023-04-02T09:12:01.803Z,9.1154
2023-04-02T09:13:03.198Z,9.1642
2023-04-02T09:14:04.747Z,8.9435
2023-04-02T09:15:06.214Z,8.9945
2023-04-02T09:16:07.792Z,9.1397
2023-04-02T09:17:09.251Z,9.1905
2023-04-02T09:18:10.741Z,9.3098
2023-04-02T09:19:12.166Z,9.1628
2023-04-02T09:20:13.661Z,9.1670
2023-04-02T09:21:15.112Z,9.0699
2023-04-02T09:22:16.593Z,9.2268
2023-04-02T09:23:18.044Z,9.2577
2023-04-02T09:24:19.523Z,9.3472
2023-04-02T09:25:21.021Z,9.6408
2023-04-02T09:26:22.460Z,9.7461
2023-04-02T09:27:23.893Z,9.8550
2023-04-02T09:28:25.341Z,9.7193
2023-04-02T09:29:26.769Z,9.6681
2023-04-02T09:30:28.257Z,9.4878
2023-04-02T09:31:29.705Z,9.6711
2023-04-02T09:32:31.165Z,9.9319
2023-04-02T09:33:32.536Z,10.0155
2023-04-02T09:34:34.159Z,9.9231
2023-04-02T09:35:35.597Z,9.9793
2023-04-02T09:36:37.051Z,9.9844
2023-04-02T09:37:38.464Z,9.8215
2023-04-02T09:38:39.955Z,9.6028
2023-04-02T09:39:41.430Z,9.6651
2023-04-02T09:40:43.097Z,9.6506
2023-04-02T09:41:48.186Z,9.5754
2023-04-02T09:42:44.590Z,9.3578
2023-04-02T09:43:46.046Z,9.3342
2023-04-02T09:44:47.516Z,9.3805
2023-04-02T09:45:49.282Z,9.2871
2023-04-02T09:46:50.764Z,9.3521
2023-04-02T09:47:52.240Z,9.4239
2023-04-02T09:48:53.703Z,9.2883
2023-04-02T09:49:55.149Z,9.1217
2023-04-02T09:50:56.639Z,9.1721
2023-04-02T09:51:58.732Z,9.2174
2023-04-02T09:53:00.212Z,9.3066
2023-04-02T09:54:01.681Z,9.3435
2023-04-02T09:55:03.137Z,9.3269
2023-04-02T09:56:04.617Z,9.2352
2023-04-02T09:57:06.120Z,9.3353
2023-04-02T09:58:07.575Z,9.3579
2023-04-02T09:59:09.025Z,9.3318
2023-04-02T10:00:18.371Z,9.3763
2023-04-02T10:01:10.586Z,9.4376
2023-04-02T10:02:12.024Z,9.4369
2023-04-02T10:03:13.478Z,9.5149
2023-04-02T10:04:14.951Z,9.5326
2023-04-02T10:05:23.549Z,9.5056
2023-04-02T10:06:15.550Z,9.6808
2023-04-02T10:07:16.970Z,9.8385
2023-04-02T10:08:18.446Z,9.8396
2023-04-02T10:09:19.915Z,9.8634
2023-04-02T10:10:21.406Z,9.8430
2023-04-02T10:11:22.973Z,9.9387
2023-04-02T10:12:24.930Z,10.0156
2023-04-02T10:13:26.364Z,10.0890
2023-04-02T10:14:27.829Z,10.2739
2023-04-02T10:15:29.222Z,10.3709
2023-04-02T10:16:30.708Z,10.4294
2023-04-02T10:17:32.178Z,10.5452
2023-04-02T10:18:33.722Z,10.3594
2023-04-02T10:19:35.179Z,10.5433
2023-04-02T10:20:48.597Z,10.5777
2023-04-02T10:21:36.653Z,10.5715
2023-04-02T10:22:38.117Z,10.7682
2023-04-02T10:23:39.591Z,10.7979
2023-04-02T10:24:41.052Z,10.6184
2023-04-02T10:25:42.508Z,10.7110
2023-04-02T10:26:43.990Z,10.6622
2023-04-02T10:27:45.402Z,10.5821
2023-04-02T10:28:46.895Z,10.3869
2023-04-02T10:29:48.331Z,10.5174
2023-04-02T10:30:49.814Z,10.5467
2023-04-02T10:31:51.231Z,10.4289
2023-04-02T10:32:52.728Z,10.3591
2023-04-02T10:33:54.189Z,10.3875
2023-04-02T10:34:55.622Z,10.6638
2023-04-02T10:35:57.123Z,10.4868
2023-04-02T10:36:58.541Z,10.5595
2023-04-02T10:37:59.994Z,10.6014
2023-04-02T10:39:01.414Z,10.6551
2023-04-02T10:40:02.845Z,10.6320
2023-04-02T10:41:04.324Z,10.5454
2023-04-02T10:42:05.723Z,10.4058
2023-04-02T10:43:07.181Z,10.2340
2023-04-02T10:44:18.998Z,10.1416
2023-04-02T10:45:08.707Z,10.2367
2023-04-02T10:46:10.205Z,10.3927
2023-04-02T10:47:11.737Z,10.2805
2023-04-02T10:48:13.192Z,10.2211
2023-04-02T10:49:14.672Z,10.3618
2023-04-02T10:50:16.100Z,10.5247
2023-04-02T10:51:17.596Z,10.5427
2023-04-02T10:52:19.038Z,10.2792
2023-04-02T10:53:20.485Z,10.3292
2023-04-02T10:54:21.899Z,10.6681
2023-04-02T10:55:23.366Z,10.7086
2023-04-02T10:56:24.832Z,10.5578
2023-04-02T10:57:26.304Z,10.5641
2023-04-02T10:58:27.739Z,10.5056
2023-04-02T10:59:29.194Z,10.5987
2023-04-02T11:00:30.655Z,10.6004
2023-04-02T11:01:32.156Z,10.6898
2023-04-02T11:02:33.594Z,10.7781
2023-04-02T11:03:35.197Z,10.7411
2023-04-02T11:04:36.675Z,10.6492
2023-04-02T11:05:38.158Z,10.7665
2023-04-02T11:06:39.586Z,10.8536
2023-04-02T11:07:41.021Z,10.9198
2023-04-02T11:08:42.417Z,10.8927
2023-04-02T11:09:43.896Z,10.8956
2023-04-02T11:10:45.343Z,10.9776
2023-04-02T11:11:46.789Z,10.8642
2023-04-02T11:12:48.199Z,10.7196
2023-04-02T11:13:49.657Z,10.8820
2023-04-02T11:14:51.114Z,11.0182
2023-04-02T11:15:52.579Z,11.1277
2023-04-02T11:16:54.038Z,11.2880
2023-04-02T11:17:55.513Z,11.0567
2023-04-02T11:18:56.954Z,11.3101
2023-04-02T11:19:58.377Z,11.3000
2023-04-02T11:20:59.834Z,11.2223
2023-04-02T11:22:03.113Z,11.0177
2023-04-02T11:23:01.818Z,11.2156
2023-04-02T11:24:03.218Z,11.0561
2023-04-02T11:25:04.672Z,11.0617
2023-04-02T11:26:06.115Z,11.2115
2023-04-02T11:27:07.650Z,11.2274
2023-04-02T11:28:09.073Z,11.2870
2023-04-02T11:29:10.532Z,11.4327
2023-04-02T11:30:11.972Z,11.4402
2023-04-02T11:31:13.406Z,11.4662
2023-04-02T11:32:14.818Z,11.4909
2023-04-02T11:33:18.692Z,11.3376
2023-04-02T11:34:17.554Z,11.3579
2023-04-02T11:35:19.012Z,11.2988
2023-04-02T11:36:20.420Z,11.6405
2023-04-02T11:37:21.911Z,12.5291
2023-04-02T11:38:23.294Z,13.1108
2023-04-02T11:39:24.726Z,13.4789
2023-04-02T11:40:26.154Z,13.6794
2023-04-02T11:41:27.576Z,13.4985
2023-04-02T11:42:29.023Z,13.5945
2023-04-02T11:43:30.455Z,13.3152
2023-04-02T11:44:31.838Z,13.8779
2023-04-02T11:45:40.167Z,14.8039
2023-04-02T11:46:33.221Z,14.5026
2023-04-02T11:47:34.660Z,13.3985
2023-04-02T11:48:36.273Z,12.8331
2023-04-02T11:49:37.788Z,12.5736
2023-04-02T11:50:38.255Z,12.5366
2023-04-02T11:51:39.762Z,12.8673
2023-04-02T11:52:41.272Z,12.6584
2023-04-02T11:53:42.649Z,13.3573
2023-04-02T11:54:44.074Z,13.0745
2023-04-02T11:55:45.418Z,13.3271
2023-04-02T11:56:46.793Z,12.7094
2023-04-02T11:57:48.176Z,12.6951
2023-04-02T11:58:49.527Z,12.4483
2023-04-02T11:59:50.863Z,12.0828
2023-04-02T12:00:52.267Z,12.3341
2023-04-02T12:01:53.633Z,12.9077
2023-04-02T12:02:55.016Z,13.3343
2023-04-02T12:03:56.396Z,12.7012
2023-04-02T12:04:57.721Z,12.5899
2023-04-02T12:05:59.082Z,12.4775
2023-04-02T12:07:00.463Z,12.0159
2023-04-02T12:08:01.830Z,11.7350
2023-04-02T12:09:03.271Z,11.7852
2023-04-02T12:10:04.639Z,11.8950
2023-04-02T12:11:06.016Z,11.8942
2023-04-02T12:12:07.398Z,11.9965
2023-04-02T12:13:08.795Z,12.0576
2023-04-02T12:14:10.177Z,11.9535
2023-04-02T12:15:10.165Z,11.8999
2023-04-02T12:16:11.558Z,11.4168
2023-04-02T12:17:13.091Z,11.6642
2023-04-02T12:18:14.583Z,11.7414
2023-04-02T12:19:15.968Z,11.7990
2023-04-02T12:20:17.386Z,11.5634
2023-04-02T12:21:18.795Z,11.7018
2023-04-02T12:22:20.344Z,11.5656
2023-04-02T12:23:21.745Z,11.3047
2023-04-02T12:24:23.192Z,11.2341
2023-04-02T12:25:24.711Z,11.2301
2023-04-02T12:26:26.151Z,11.2352
2023-04-02T12:27:27.825Z,11.4510
2023-04-02T12:28:29.661Z,11.4688
2023-04-02T12:29:31.097Z,11.2811
2023-04-02T12:30:32.596Z,11.3949
2023-04-02T12:31:34.145Z,11.4423
2023-04-02T12:32:35.611Z,11.5090
2023-04-02T12:33:37.100Z,11.4792
2023-04-02T12:34:38.641Z,11.2320
2023-04-02T12:35:40.155Z,11.0239
2023-04-02T12:36:41.589Z,11.2107
2023-04-02T12:37:43.082Z,11.1069
2023-04-02T12:38:44.594Z,11.0319
2023-04-02T12:39:46.090Z,11.0224
2023-04-02T12:40:47.574Z,11.2860
2023-04-02T12:41:49.072Z,11.7996